sensor_id;sensor_type;location;lat;lon;timestamp;P1;durP1;ratioP1;P2;durP2;ratioP2
78873;SDS011;68250;43.514;1.494;2023-03-23T00:01:25;3.83;;;1.00;;
78873;SDS011;68250;43.514;1.494;2023-03-23T00:03:54;5.38;;;0.95;;
78873;SDS011;68250;43.514;1.494;2023-03-23T00:06:22;3.15;;;1.00;;
78873;SDS011;68250;43.514;1.494;2023-03-23T00:08:49;3.53;;;0.82;;
78873;SDS011;68250;43.514;1.494;2023-03-23T00:11:22;3.92;;;0.77;;
78873;SDS011;68250;43.514;1.494;2023-03-23T00:13:51;4.28;;;0.95;;
78873;SDS011;68250;43.514;1.494;2023-03-23T00:16:21;4.63;;;0.90;;
78873;SDS011;68250;43.514;1.494;2023-03-23T00:18:54;4.47;;;1.20;;
78873;SDS011;68250;43.514;1.494;2023-03-23T00:21:24;5.55;;;1.20;;
78873;SDS011;68250;43.514;1.494;2023-03-23T00:26:36;3.72;;;1.02;;
78873;SDS011;68250;43.514;1.494;2023-03-23T00:29:05;3.60;;;0.95;;
78873;SDS011;68250;43.514;1.494;2023-03-23T00:31:32;4.43;;;1.00;;
78873;SDS011;68250;43.514;1.494;2023-03-23T00:34:00;5.25;;;1.35;;
78873;SDS011;68250;43.514;1.494;2023-03-23T00:36:29;5.32;;;1.50;;
78873;SDS011;68250;43.514;1.494;2023-03-23T00:38:55;3.92;;;1.38;;
78873;SDS011;68250;43.514;1.494;2023-03-23T00:41:23;4.38;;;1.40;;
78873;SDS011;68250;43.514;1.494;2023-03-23T00:43:52;4.20;;;1.52;;
78873;SDS011;68250;43.514;1.494;2023-03-23T00:46:21;6.85;;;1.58;;
78873;SDS011;68250;43.514;1.494;2023-03-23T00:48:47;6.80;;;2.00;;
78873;SDS011;68250;43.514;1.494;2023-03-23T00:51:15;4.82;;;2.03;;
78873;SDS011;68250;43.514;1.494;2023-03-23T00:53:42;5.50;;;2.20;;
78873;SDS011;68250;43.514;1.494;2023-03-23T00:56:08;6.60;;;2.28;;
78873;SDS011;68250;43.514;1.494;2023-03-23T00:58:34;4.97;;;2.20;;
78873;SDS011;68250;43.514;1.494;2023-03-23T01:01:00;6.90;;;2.80;;
78873;SDS011;68250;43.514;1.494;2023-03-23T01:03:26;7.03;;;2.60;;
78873;SDS011;68250;43.514;1.494;2023-03-23T01:05:53;6.10;;;2.75;;
78873;SDS011;68250;43.514;1.494;2023-03-23T01:08:20;9.65;;;2.70;;
78873;SDS011;68250;43.514;1.494;2023-03-23T01:10:46;9.07;;;3.15;;
78873;SDS011;68250;43.514;1.494;2023-03-23T01:13:13;6.90;;;3.15;;
78873;SDS011;68250;43.514;1.494;2023-03-23T01:15:39;7.80;;;3.10;;
78873;SDS011;68250;43.514;1.494;2023-03-23T01:18:05;7.43;;;3.33;;
78873;SDS011;68250;43.514;1.494;2023-03-23T01:20:31;7.28;;;3.22;;
78873;SDS011;68250;43.514;1.494;2023-03-23T01:22:57;8.57;;;3.28;;
78873;SDS011;68250;43.514;1.494;2023-03-23T01:25:26;6.82;;;3.17;;
78873;SDS011;68250;43.514;1.494;2023-03-23T01:27:56;7.97;;;3.58;;
78873;SDS011;68250;43.514;1.494;2023-03-23T01:30:22;9.38;;;3.92;;
78873;SDS011;68250;43.514;1.494;2023-03-23T01:32:48;7.30;;;3.60;;
78873;SDS011;68250;43.514;1.494;2023-03-23T01:35:14;8.47;;;4.07;;
78873;SDS011;68250;43.514;1.494;2023-03-23T01:37:39;8.45;;;3.70;;
78873;SDS011;68250;43.514;1.494;2023-03-23T01:40:05;9.38;;;3.85;;
78873;SDS011;68250;43.514;1.494;2023-03-23T01:42:32;10.48;;;4.35;;
78873;SDS011;68250;43.514;1.494;2023-03-23T01:47:44;11.38;;;4.90;;
78873;SDS011;68250;43.514;1.494;2023-03-23T01:50:13;11.60;;;5.63;;
78873;SDS011;68250;43.514;1.494;2023-03-23T01:52:38;11.23;;;5.75;;
78873;SDS011;68250;43.514;1.494;2023-03-23T01:55:04;12.03;;;5.63;;
78873;SDS011;68250;43.514;1.494;2023-03-23T01:57:30;12.02;;;6.18;;
78873;SDS011;68250;43.514;1.494;2023-03-23T01:59:56;12.40;;;5.72;;
78873;SDS011;68250;43.514;1.494;2023-03-23T02:02:23;15.20;;;6.38;;
78873;SDS011;68250;43.514;1.494;2023-03-23T02:04:50;14.57;;;6.80;;
78873;SDS011;68250;43.514;1.494;2023-03-23T02:07:17;14.73;;;6.90;;
78873;SDS011;68250;43.514;1.494;2023-03-23T02:09:43;12.80;;;6.35;;
78873;SDS011;68250;43.514;1.494;2023-03-23T02:12:08;13.10;;;6.70;;
78873;SDS011;68250;43.514;1.494;2023-03-23T02:14:34;14.52;;;6.55;;
78873;SDS011;68250;43.514;1.494;2023-03-23T02:19:47;15.02;;;7.50;;
78873;SDS011;68250;43.514;1.494;2023-03-23T02:22:28;13.77;;;7.25;;
78873;SDS011;68250;43.514;1.494;2023-03-23T02:30:40;15.75;;;8.35;;
78873;SDS011;68250;43.514;1.494;2023-03-23T02:36:05;16.65;;;7.97;;
78873;SDS011;68250;43.514;1.494;2023-03-23T02:38:38;15.82;;;8.05;;
78873;SDS011;68250;43.514;1.494;2023-03-23T02:41:10;17.27;;;8.05;;
78873;SDS011;68250;43.514;1.494;2023-03-23T02:43:38;16.92;;;7.68;;
78873;SDS011;68250;43.514;1.494;2023-03-23T02:46:06;14.93;;;6.65;;
78873;SDS011;68250;43.514;1.494;2023-03-23T02:48:34;13.40;;;7.55;;
78873;SDS011;68250;43.514;1.494;2023-03-23T02:51:01;14.43;;;7.60;;
78873;SDS011;68250;43.514;1.494;2023-03-23T02:53:27;16.40;;;7.22;;
78873;SDS011;68250;43.514;1.494;2023-03-23T02:55:53;16.63;;;7.70;;
78873;SDS011;68250;43.514;1.494;2023-03-23T02:58:20;14.27;;;7.40;;
78873;SDS011;68250;43.514;1.494;2023-03-23T03:00:48;15.32;;;6.88;;
78873;SDS011;68250;43.514;1.494;2023-03-23T03:03:19;13.82;;;6.40;;
78873;SDS011;68250;43.514;1.494;2023-03-23T03:05:56;14.23;;;7.10;;
78873;SDS011;68250;43.514;1.494;2023-03-23T03:11:07;13.93;;;6.88;;
78873;SDS011;68250;43.514;1.494;2023-03-23T03:21:42;13.80;;;6.72;;
78873;SDS011;68250;43.514;1.494;2023-03-23T03:24:10;15.88;;;7.20;;
78873;SDS011;68250;43.514;1.494;2023-03-23T03:26:37;12.85;;;6.55;;
78873;SDS011;68250;43.514;1.494;2023-03-23T03:29:03;14.05;;;6.22;;
78873;SDS011;68250;43.514;1.494;2023-03-23T03:31:31;13.43;;;6.47;;
78873;SDS011;68250;43.514;1.494;2023-03-23T03:34:00;11.25;;;6.20;;
78873;SDS011;68250;43.514;1.494;2023-03-23T03:36:30;13.13;;;5.90;;
78873;SDS011;68250;43.514;1.494;2023-03-23T03:39:00;12.65;;;6.40;;
78873;SDS011;68250;43.514;1.494;2023-03-23T03:41:30;14.02;;;5.82;;
78873;SDS011;68250;43.514;1.494;2023-03-23T03:43:56;13.07;;;6.20;;
78873;SDS011;68250;43.514;1.494;2023-03-23T03:46:22;12.87;;;6.00;;
78873;SDS011;68250;43.514;1.494;2023-03-23T03:48:51;12.77;;;5.88;;
78873;SDS011;68250;43.514;1.494;2023-03-23T03:51:17;13.63;;;5.93;;
78873;SDS011;68250;43.514;1.494;2023-03-23T03:53:43;10.93;;;5.80;;
78873;SDS011;68250;43.514;1.494;2023-03-23T03:56:08;13.88;;;6.20;;
78873;SDS011;68250;43.514;1.494;2023-03-23T03:58:34;13.70;;;5.93;;
78873;SDS011;68250;43.514;1.494;2023-03-23T04:01:01;13.70;;;6.30;;
78873;SDS011;68250;43.514;1.494;2023-03-23T04:03:27;14.05;;;6.18;;
78873;SDS011;68250;43.514;1.494;2023-03-23T04:05:53;14.43;;;6.50;;
78873;SDS011;68250;43.514;1.494;2023-03-23T04:08:20;13.00;;;6.85;;
78873;SDS011;68250;43.514;1.494;2023-03-23T04:10:49;15.60;;;6.80;;
78873;SDS011;68250;43.514;1.494;2023-03-23T04:13:15;13.82;;;7.50;;
78873;SDS011;68250;43.514;1.494;2023-03-23T04:15:41;14.48;;;7.63;;
78873;SDS011;68250;43.514;1.494;2023-03-23T04:18:06;16.23;;;7.50;;
78873;SDS011;68250;43.514;1.494;2023-03-23T04:20:33;16.52;;;8.02;;
78873;SDS011;68250;43.514;1.494;2023-03-23T04:23:00;14.50;;;7.65;;
78873;SDS011;68250;43.514;1.494;2023-03-23T04:25:26;20.80;;;8.27;;
78873;SDS011;68250;43.514;1.494;2023-03-23T04:27:52;14.03;;;7.70;;
78873;SDS011;68250;43.514;1.494;2023-03-23T04:30:23;16.98;;;8.30;;
78873;SDS011;68250;43.514;1.494;2023-03-23T04:32:50;16.58;;;8.57;;
78873;SDS011;68250;43.514;1.494;2023-03-23T04:35:17;15.68;;;8.15;;
78873;SDS011;68250;43.514;1.494;2023-03-23T04:37:44;16.35;;;8.32;;
78873;SDS011;68250;43.514;1.494;2023-03-23T04:40:10;15.60;;;7.55;;
78873;SDS011;68250;43.514;1.494;2023-03-23T04:42:40;14.65;;;8.18;;
78873;SDS011;68250;43.514;1.494;2023-03-23T04:45:10;17.55;;;7.97;;
78873;SDS011;68250;43.514;1.494;2023-03-23T04:47:36;16.45;;;8.85;;
78873;SDS011;68250;43.514;1.494;2023-03-23T04:50:18;14.00;;;7.67;;
78873;SDS011;68250;43.514;1.494;2023-03-23T04:52:45;15.32;;;8.02;;
78873;SDS011;68250;43.514;1.494;2023-03-23T04:55:11;15.15;;;8.05;;
78873;SDS011;68250;43.514;1.494;2023-03-23T04:57:37;16.15;;;8.00;;
78873;SDS011;68250;43.514;1.494;2023-03-23T05:00:03;17.23;;;7.73;;
78873;SDS011;68250;43.514;1.494;2023-03-23T05:02:37;16.40;;;8.45;;
78873;SDS011;68250;43.514;1.494;2023-03-23T05:05:05;16.95;;;8.23;;
78873;SDS011;68250;43.514;1.494;2023-03-23T05:07:35;15.48;;;7.65;;
78873;SDS011;68250;43.514;1.494;2023-03-23T05:10:05;14.52;;;7.43;;
78873;SDS011;68250;43.514;1.494;2023-03-23T05:12:31;16.97;;;8.43;;
78873;SDS011;68250;43.514;1.494;2023-03-23T05:14:57;17.30;;;8.00;;
78873;SDS011;68250;43.514;1.494;2023-03-23T05:17:22;17.07;;;8.30;;
78873;SDS011;68250;43.514;1.494;2023-03-23T05:19:49;19.77;;;8.32;;
78873;SDS011;68250;43.514;1.494;2023-03-23T05:22:15;19.52;;;8.10;;
78873;SDS011;68250;43.514;1.494;2023-03-23T05:24:41;15.95;;;8.40;;
78873;SDS011;68250;43.514;1.494;2023-03-23T05:27:08;16.48;;;7.75;;
78873;SDS011;68250;43.514;1.494;2023-03-23T05:29:34;17.33;;;7.78;;
78873;SDS011;68250;43.514;1.494;2023-03-23T05:32:03;15.85;;;7.55;;
78873;SDS011;68250;43.514;1.494;2023-03-23T05:34:30;17.98;;;8.02;;
78873;SDS011;68250;43.514;1.494;2023-03-23T05:36:58;18.23;;;8.30;;
78873;SDS011;68250;43.514;1.494;2023-03-23T05:39:28;16.60;;;8.13;;
78873;SDS011;68250;43.514;1.494;2023-03-23T05:41:54;14.13;;;7.55;;
78873;SDS011;68250;43.514;1.494;2023-03-23T05:44:20;14.82;;;8.07;;
78873;SDS011;68250;43.514;1.494;2023-03-23T05:46:46;16.23;;;7.47;;
78873;SDS011;68250;43.514;1.494;2023-03-23T05:49:12;14.65;;;7.63;;
78873;SDS011;68250;43.514;1.494;2023-03-23T05:51:38;16.83;;;8.48;;
78873;SDS011;68250;43.514;1.494;2023-03-23T05:54:04;13.18;;;7.35;;
78873;SDS011;68250;43.514;1.494;2023-03-23T05:56:30;16.23;;;7.93;;
78873;SDS011;68250;43.514;1.494;2023-03-23T05:58:56;17.70;;;8.20;;
78873;SDS011;68250;43.514;1.494;2023-03-23T06:01:23;15.90;;;7.65;;
78873;SDS011;68250;43.514;1.494;2023-03-23T06:03:49;16.65;;;8.00;;
78873;SDS011;68250;43.514;1.494;2023-03-23T06:06:19;16.65;;;7.53;;
78873;SDS011;68250;43.514;1.494;2023-03-23T06:08:45;18.33;;;8.63;;
78873;SDS011;68250;43.514;1.494;2023-03-23T06:11:11;17.13;;;8.17;;
78873;SDS011;68250;43.514;1.494;2023-03-23T06:13:38;16.08;;;8.15;;
78873;SDS011;68250;43.514;1.494;2023-03-23T06:16:04;15.60;;;7.67;;
78873;SDS011;68250;43.514;1.494;2023-03-23T06:18:29;18.70;;;7.97;;
78873;SDS011;68250;43.514;1.494;2023-03-23T06:20:58;15.63;;;7.88;;
78873;SDS011;68250;43.514;1.494;2023-03-23T06:23:25;15.00;;;8.18;;
78873;SDS011;68250;43.514;1.494;2023-03-23T06:25:58;15.30;;;7.90;;
78873;SDS011;68250;43.514;1.494;2023-03-23T06:28:25;15.68;;;7.88;;
78873;SDS011;68250;43.514;1.494;2023-03-23T06:30:51;15.80;;;7.45;;
78873;SDS011;68250;43.514;1.494;2023-03-23T06:33:17;14.88;;;7.63;;
78873;SDS011;68250;43.514;1.494;2023-03-23T06:35:43;14.30;;;7.60;;
78873;SDS011;68250;43.514;1.494;2023-03-23T06:38:09;20.93;;;7.90;;
78873;SDS011;68250;43.514;1.494;2023-03-23T06:40:35;16.65;;;7.07;;
78873;SDS011;68250;43.514;1.494;2023-03-23T06:43:01;15.03;;;7.10;;
78873;SDS011;68250;43.514;1.494;2023-03-23T06:45:29;15.00;;;7.18;;
78873;SDS011;68250;43.514;1.494;2023-03-23T06:47:55;15.00;;;6.82;;
78873;SDS011;68250;43.514;1.494;2023-03-23T06:50:24;13.60;;;6.90;;
78873;SDS011;68250;43.514;1.494;2023-03-23T06:52:50;13.88;;;7.10;;
78873;SDS011;68250;43.514;1.494;2023-03-23T06:55:16;15.27;;;6.97;;
78873;SDS011;68250;43.514;1.494;2023-03-23T06:57:42;13.75;;;7.40;;
78873;SDS011;68250;43.514;1.494;2023-03-23T07:00:10;14.52;;;7.20;;
78873;SDS011;68250;43.514;1.494;2023-03-23T07:02:38;14.70;;;6.78;;
78873;SDS011;68250;43.514;1.494;2023-03-23T07:05:04;14.23;;;7.63;;
78873;SDS011;68250;43.514;1.494;2023-03-23T07:07:30;14.82;;;7.68;;
78873;SDS011;68250;43.514;1.494;2023-03-23T07:09:56;12.77;;;6.83;;
78873;SDS011;68250;43.514;1.494;2023-03-23T07:12:21;18.02;;;8.20;;
78873;SDS011;68250;43.514;1.494;2023-03-23T07:14:47;15.48;;;7.30;;
78873;SDS011;68250;43.514;1.494;2023-03-23T07:17:13;16.90;;;7.30;;
78873;SDS011;68250;43.514;1.494;2023-03-23T07:19:39;14.38;;;7.40;;
78873;SDS011;68250;43.514;1.494;2023-03-23T07:22:05;15.48;;;7.60;;
78873;SDS011;68250;43.514;1.494;2023-03-23T07:24:31;14.25;;;7.00;;
78873;SDS011;68250;43.514;1.494;2023-03-23T07:26:58;14.77;;;7.13;;
78873;SDS011;68250;43.514;1.494;2023-03-23T07:29:23;15.57;;;7.07;;
78873;SDS011;68250;43.514;1.494;2023-03-23T07:31:49;17.20;;;8.40;;
78873;SDS011;68250;43.514;1.494;2023-03-23T07:34:14;16.63;;;7.63;;
78873;SDS011;68250;43.514;1.494;2023-03-23T07:36:40;13.80;;;7.68;;
78873;SDS011;68250;43.514;1.494;2023-03-23T07:39:06;15.37;;;7.93;;
78873;SDS011;68250;43.514;1.494;2023-03-23T07:41:32;14.35;;;7.35;;
78873;SDS011;68250;43.514;1.494;2023-03-23T07:43:58;16.60;;;7.90;;
78873;SDS011;68250;43.514;1.494;2023-03-23T07:46:23;14.97;;;7.67;;
78873;SDS011;68250;43.514;1.494;2023-03-23T07:48:49;13.60;;;7.80;;
78873;SDS011;68250;43.514;1.494;2023-03-23T07:51:15;14.27;;;7.57;;
78873;SDS011;68250;43.514;1.494;2023-03-23T07:53:43;12.85;;;6.95;;
78873;SDS011;68250;43.514;1.494;2023-03-23T07:56:12;19.05;;;8.32;;
78873;SDS011;68250;43.514;1.494;2023-03-23T07:58:40;15.18;;;7.57;;
78873;SDS011;68250;43.514;1.494;2023-03-23T08:01:06;16.02;;;7.47;;
78873;SDS011;68250;43.514;1.494;2023-03-23T08:03:32;13.57;;;7.00;;
78873;SDS011;68250;43.514;1.494;2023-03-23T08:05:59;12.80;;;7.60;;
78873;SDS011;68250;43.514;1.494;2023-03-23T08:08:25;12.50;;;7.32;;
78873;SDS011;68250;43.514;1.494;2023-03-23T08:10:51;12.63;;;7.18;;
78873;SDS011;68250;43.514;1.494;2023-03-23T08:13:17;12.63;;;6.82;;
78873;SDS011;68250;43.514;1.494;2023-03-23T08:15:43;13.73;;;7.13;;
78873;SDS011;68250;43.514;1.494;2023-03-23T08:18:09;15.32;;;7.25;;
78873;SDS011;68250;43.514;1.494;2023-03-23T08:20:35;12.57;;;6.93;;
78873;SDS011;68250;43.514;1.494;2023-03-23T08:23:01;12.50;;;6.82;;
78873;SDS011;68250;43.514;1.494;2023-03-23T08:25:28;13.23;;;6.90;;
78873;SDS011;68250;43.514;1.494;2023-03-23T08:27:56;12.63;;;6.75;;
78873;SDS011;68250;43.514;1.494;2023-03-23T08:30:22;14.07;;;7.25;;
78873;SDS011;68250;43.514;1.494;2023-03-23T08:32:48;11.60;;;6.65;;
78873;SDS011;68250;43.514;1.494;2023-03-23T08:35:15;12.93;;;5.90;;
78873;SDS011;68250;43.514;1.494;2023-03-23T08:37:41;12.65;;;6.43;;
78873;SDS011;68250;43.514;1.494;2023-03-23T08:40:07;11.93;;;7.03;;
78873;SDS011;68250;43.514;1.494;2023-03-23T08:42:34;14.52;;;6.57;;
78873;SDS011;68250;43.514;1.494;2023-03-23T08:45:04;12.35;;;6.20;;
78873;SDS011;68250;43.514;1.494;2023-03-23T08:47:32;14.30;;;6.13;;
78873;SDS011;68250;43.514;1.494;2023-03-23T08:49:58;10.45;;;5.38;;
78873;SDS011;68250;43.514;1.494;2023-03-23T08:52:23;10.10;;;5.83;;
78873;SDS011;68250;43.514;1.494;2023-03-23T08:54:49;9.30;;;5.50;;
78873;SDS011;68250;43.514;1.494;2023-03-23T08:57:15;11.05;;;5.88;;
78873;SDS011;68250;43.514;1.494;2023-03-23T08:59:41;10.93;;;5.50;;
78873;SDS011;68250;43.514;1.494;2023-03-23T09:02:09;10.25;;;5.20;;
78873;SDS011;68250;43.514;1.494;2023-03-23T09:04:36;10.68;;;5.32;;
78873;SDS011;68250;43.514;1.494;2023-03-23T09:07:02;10.13;;;5.30;;
78873;SDS011;68250;43.514;1.494;2023-03-23T09:09:28;9.15;;;4.78;;
78873;SDS011;68250;43.514;1.494;2023-03-23T09:11:54;9.95;;;5.50;;
78873;SDS011;68250;43.514;1.494;2023-03-23T09:14:19;10.43;;;5.65;;
78873;SDS011;68250;43.514;1.494;2023-03-23T09:16:46;9.73;;;5.35;;
78873;SDS011;68250;43.514;1.494;2023-03-23T09:19:12;9.37;;;5.50;;
78873;SDS011;68250;43.514;1.494;2023-03-23T09:21:37;10.82;;;5.75;;
78873;SDS011;68250;43.514;1.494;2023-03-23T09:24:03;10.10;;;5.57;;
78873;SDS011;68250;43.514;1.494;2023-03-23T09:26:30;10.73;;;5.43;;
78873;SDS011;68250;43.514;1.494;2023-03-23T09:28:56;12.07;;;5.97;;
78873;SDS011;68250;43.514;1.494;2023-03-23T09:31:23;11.07;;;5.70;;
78873;SDS011;68250;43.514;1.494;2023-03-23T09:33:51;10.65;;;6.13;;
78873;SDS011;68250;43.514;1.494;2023-03-23T09:36:18;10.60;;;5.55;;
78873;SDS011;68250;43.514;1.494;2023-03-23T09:38:46;14.35;;;5.28;;
78873;SDS011;68250;43.514;1.494;2023-03-23T09:44:07;8.80;;;5.07;;
78873;SDS011;68250;43.514;1.494;2023-03-23T09:49:17;10.15;;;5.32;;
78873;SDS011;68250;43.514;1.494;2023-03-23T09:52:10;10.88;;;5.05;;
78873;SDS011;68250;43.514;1.494;2023-03-23T09:54:39;7.72;;;4.45;;
78873;SDS011;68250;43.514;1.494;2023-03-23T10:05:07;9.93;;;4.20;;
78873;SDS011;68250;43.514;1.494;2023-03-23T10:07:41;9.23;;;4.47;;
78873;SDS011;68250;43.514;1.494;2023-03-23T10:10:08;7.63;;;4.47;;
78873;SDS011;68250;43.514;1.494;2023-03-23T10:15:12;7.63;;;4.32;;
78873;SDS011;68250;43.514;1.494;2023-03-23T10:17:45;8.27;;;4.70;;
78873;SDS011;68250;43.514;1.494;2023-03-23T10:20:28;8.87;;;4.60;;
78873;SDS011;68250;43.514;1.494;2023-03-23T10:23:02;8.23;;;4.13;;
78873;SDS011;68250;43.514;1.494;2023-03-23T10:25:34;8.13;;;4.28;;
78873;SDS011;68250;43.514;1.494;2023-03-23T10:28:06;10.02;;;4.55;;
78873;SDS011;68250;43.514;1.494;2023-03-23T10:30:42;7.35;;;3.80;;
78873;SDS011;68250;43.514;1.494;2023-03-23T10:33:13;7.20;;;3.70;;
78873;SDS011;68250;43.514;1.494;2023-03-23T10:35:57;7.97;;;4.25;;
78873;SDS011;68250;43.514;1.494;2023-03-23T10:38:29;7.70;;;4.63;;
78873;SDS011;68250;43.514;1.494;2023-03-23T10:41:00;9.27;;;4.68;;
78873;SDS011;68250;43.514;1.494;2023-03-23T10:43:34;10.20;;;4.55;;
78873;SDS011;68250;43.514;1.494;2023-03-23T10:46:02;9.37;;;5.40;;
78873;SDS011;68250;43.514;1.494;2023-03-23T10:48:36;8.35;;;5.18;;
78873;SDS011;68250;43.514;1.494;2023-03-23T10:51:04;8.73;;;5.05;;
78873;SDS011;68250;43.514;1.494;2023-03-23T10:53:35;7.78;;;4.95;;
78873;SDS011;68250;43.514;1.494;2023-03-23T10:56:03;9.27;;;4.93;;
78873;SDS011;68250;43.514;1.494;2023-03-23T10:58:30;9.43;;;5.20;;
78873;SDS011;68250;43.514;1.494;2023-03-23T11:00:59;9.07;;;5.40;;
78873;SDS011;68250;43.514;1.494;2023-03-23T11:03:42;9.95;;;5.40;;
78873;SDS011;68250;43.514;1.494;2023-03-23T11:06:10;9.02;;;5.45;;
78873;SDS011;68250;43.514;1.494;2023-03-23T11:08:56;9.98;;;5.50;;
78873;SDS011;68250;43.514;1.494;2023-03-23T11:11:28;9.97;;;5.23;;
78873;SDS011;68250;43.514;1.494;2023-03-23T11:14:02;8.57;;;5.45;;
78873;SDS011;68250;43.514;1.494;2023-03-23T11:16:43;10.05;;;5.28;;
78873;SDS011;68250;43.514;1.494;2023-03-23T11:19:15;11.13;;;5.50;;
78873;SDS011;68250;43.514;1.494;2023-03-23T11:21:57;10.75;;;6.15;;
78873;SDS011;68250;43.514;1.494;2023-03-23T11:24:34;10.27;;;6.17;;
78873;SDS011;68250;43.514;1.494;2023-03-23T11:27:02;11.60;;;5.57;;
78873;SDS011;68250;43.514;1.494;2023-03-23T11:29:31;9.50;;;5.47;;
78873;SDS011;68250;43.514;1.494;2023-03-23T11:37:09;13.07;;;5.90;;
78873;SDS011;68250;43.514;1.494;2023-03-23T11:42:26;10.13;;;5.57;;
78873;SDS011;68250;43.514;1.494;2023-03-23T11:50:29;10.57;;;5.63;;
78873;SDS011;68250;43.514;1.494;2023-03-23T11:53:00;11.43;;;5.88;;
78873;SDS011;68250;43.514;1.494;2023-03-23T11:55:35;10.73;;;6.23;;
78873;SDS011;68250;43.514;1.494;2023-03-23T11:58:16;11.68;;;5.93;;
78873;SDS011;68250;43.514;1.494;2023-03-23T12:00:48;10.27;;;6.20;;
78873;SDS011;68250;43.514;1.494;2023-03-23T12:03:22;12.20;;;6.43;;
78873;SDS011;68250;43.514;1.494;2023-03-23T12:16:20;10.70;;;5.95;;
78873;SDS011;68250;43.514;1.494;2023-03-23T12:19:09;12.55;;;6.10;;
78873;SDS011;68250;43.514;1.494;2023-03-23T12:21:52;10.97;;;6.13;;
78873;SDS011;68250;43.514;1.494;2023-03-23T12:24:52;11.30;;;5.88;;
78873;SDS011;68250;43.514;1.494;2023-03-23T12:27:47;10.77;;;5.70;;
78873;SDS011;68250;43.514;1.494;2023-03-23T12:38:44;9.98;;;5.57;;
78873;SDS011;68250;43.514;1.494;2023-03-23T12:44:00;9.65;;;5.85;;
78873;SDS011;68250;43.514;1.494;2023-03-23T13:05:43;13.45;;;5.93;;
78873;SDS011;68250;43.514;1.494;2023-03-23T13:08:16;13.40;;;6.18;;
78873;SDS011;68250;43.514;1.494;2023-03-23T13:10:50;10.60;;;5.72;;
78873;SDS011;68250;43.514;1.494;2023-03-23T13:13:18;10.32;;;5.55;;
78873;SDS011;68250;43.514;1.494;2023-03-23T13:18:40;12.05;;;5.68;;
78873;SDS011;68250;43.514;1.494;2023-03-23T13:21:21;11.50;;;5.90;;
78873;SDS011;68250;43.514;1.494;2023-03-23T13:23:56;10.48;;;5.03;;
78873;SDS011;68250;43.514;1.494;2023-03-23T13:26:23;9.73;;;5.50;;
78873;SDS011;68250;43.514;1.494;2023-03-23T13:28:57;8.50;;;5.00;;
78873;SDS011;68250;43.514;1.494;2023-03-23T13:31:34;9.43;;;5.22;;
78873;SDS011;68250;43.514;1.494;2023-03-23T13:34:05;13.13;;;5.80;;
78873;SDS011;68250;43.514;1.494;2023-03-23T13:36:38;10.90;;;5.72;;
78873;SDS011;68250;43.514;1.494;2023-03-23T13:39:06;10.27;;;5.17;;
78873;SDS011;68250;43.514;1.494;2023-03-23T13:41:46;9.68;;;5.30;;
78873;SDS011;68250;43.514;1.494;2023-03-23T13:44:18;10.25;;;5.35;;
78873;SDS011;68250;43.514;1.494;2023-03-23T13:46:56;10.27;;;5.07;;
78873;SDS011;68250;43.514;1.494;2023-03-23T13:49:23;9.70;;;5.47;;
78873;SDS011;68250;43.514;1.494;2023-03-23T14:01:56;13.13;;;4.63;;
78873;SDS011;68250;43.514;1.494;2023-03-23T14:04:42;10.93;;;4.90;;
78873;SDS011;68250;43.514;1.494;2023-03-23T14:07:08;9.15;;;5.00;;
78873;SDS011;68250;43.514;1.494;2023-03-23T14:09:39;9.63;;;5.00;;
78873;SDS011;68250;43.514;1.494;2023-03-23T14:19:40;9.93;;;5.30;;
78873;SDS011;68250;43.514;1.494;2023-03-23T14:22:23;8.32;;;4.90;;
78873;SDS011;68250;43.514;1.494;2023-03-23T14:25:01;10.35;;;5.32;;
78873;SDS011;68250;43.514;1.494;2023-03-23T14:27:34;11.43;;;5.72;;
78873;SDS011;68250;43.514;1.494;2023-03-23T14:30:07;10.87;;;5.47;;
78873;SDS011;68250;43.514;1.494;2023-03-23T14:32:34;9.32;;;5.78;;
78873;SDS011;68250;43.514;1.494;2023-03-23T14:35:34;12.85;;;5.68;;
78873;SDS011;68250;43.514;1.494;2023-03-23T14:37:52;12.53;;;6.10;;
78873;SDS011;68250;43.514;1.494;2023-03-23T14:40:18;12.57;;;5.88;;
78873;SDS011;68250;43.514;1.494;2023-03-23T14:42:44;10.48;;;5.75;;
78873;SDS011;68250;43.514;1.494;2023-03-23T14:45:12;10.85;;;5.90;;
78873;SDS011;68250;43.514;1.494;2023-03-23T14:47:51;8.90;;;5.47;;
78873;SDS011;68250;43.514;1.494;2023-03-23T14:55:46;10.70;;;6.38;;
78873;SDS011;68250;43.514;1.494;2023-03-23T14:58:15;12.18;;;6.22;;
78873;SDS011;68250;43.514;1.494;2023-03-23T15:00:44;11.27;;;6.47;;
78873;SDS011;68250;43.514;1.494;2023-03-23T15:03:42;12.32;;;6.40;;
78873;SDS011;68250;43.514;1.494;2023-03-23T15:06:12;13.30;;;6.22;;
78873;SDS011;68250;43.514;1.494;2023-03-23T15:08:40;12.23;;;6.15;;
78873;SDS011;68250;43.514;1.494;2023-03-23T15:11:20;11.53;;;6.17;;
78873;SDS011;68250;43.514;1.494;2023-03-23T15:13:57;14.00;;;6.28;;
78873;SDS011;68250;43.514;1.494;2023-03-23T15:16:27;13.32;;;6.50;;
78873;SDS011;68250;43.514;1.494;2023-03-23T15:19:04;11.00;;;6.03;;
78873;SDS011;68250;43.514;1.494;2023-03-23T15:21:35;10.40;;;6.00;;
78873;SDS011;68250;43.514;1.494;2023-03-23T15:24:45;13.53;;;6.33;;
78873;SDS011;68250;43.514;1.494;2023-03-23T15:27:12;14.70;;;6.30;;
78873;SDS011;68250;43.514;1.494;2023-03-23T15:29:46;10.70;;;5.82;;
78873;SDS011;68250;43.514;1.494;2023-03-23T15:32:13;10.52;;;5.97;;
78873;SDS011;68250;43.514;1.494;2023-03-23T15:34:45;11.30;;;6.07;;
78873;SDS011;68250;43.514;1.494;2023-03-23T15:39:50;11.82;;;5.65;;
78873;SDS011;68250;43.514;1.494;2023-03-23T15:42:27;12.30;;;5.53;;
78873;SDS011;68250;43.514;1.494;2023-03-23T15:44:55;10.23;;;5.03;;
78873;SDS011;68250;43.514;1.494;2023-03-23T15:47:21;10.68;;;5.13;;
78873;SDS011;68250;43.514;1.494;2023-03-23T15:50:01;9.97;;;5.33;;
78873;SDS011;68250;43.514;1.494;2023-03-23T15:52:30;11.93;;;4.85;;
78873;SDS011;68250;43.514;1.494;2023-03-23T15:54:55;9.07;;;4.90;;
78873;SDS011;68250;43.514;1.494;2023-03-23T15:57:21;11.18;;;5.28;;
78873;SDS011;68250;43.514;1.494;2023-03-23T15:59:46;9.97;;;5.00;;
78873;SDS011;68250;43.514;1.494;2023-03-23T16:02:18;11.65;;;5.40;;
78873;SDS011;68250;43.514;1.494;2023-03-23T16:04:45;10.00;;;4.93;;
78873;SDS011;68250;43.514;1.494;2023-03-23T16:07:11;11.32;;;5.20;;
78873;SDS011;68250;43.514;1.494;2023-03-23T16:09:38;10.00;;;5.15;;
78873;SDS011;68250;43.514;1.494;2023-03-23T16:12:10;10.02;;;5.20;;
78873;SDS011;68250;43.514;1.494;2023-03-23T16:14:37;11.20;;;4.40;;
78873;SDS011;68250;43.514;1.494;2023-03-23T16:17:04;9.35;;;4.50;;
78873;SDS011;68250;43.514;1.494;2023-03-23T16:19:30;10.93;;;4.57;;
78873;SDS011;68250;43.514;1.494;2023-03-23T16:21:55;11.27;;;4.93;;
78873;SDS011;68250;43.514;1.494;2023-03-23T16:24:21;9.68;;;4.60;;
78873;SDS011;68250;43.514;1.494;2023-03-23T16:26:47;10.77;;;4.27;;
78873;SDS011;68250;43.514;1.494;2023-03-23T16:29:13;10.48;;;4.97;;
78873;SDS011;68250;43.514;1.494;2023-03-23T16:31:58;9.40;;;4.40;;
78873;SDS011;68250;43.514;1.494;2023-03-23T16:34:24;8.85;;;4.43;;
78873;SDS011;68250;43.514;1.494;2023-03-23T16:36:52;11.18;;;4.72;;
78873;SDS011;68250;43.514;1.494;2023-03-23T16:39:18;14.37;;;4.67;;
78873;SDS011;68250;43.514;1.494;2023-03-23T16:41:44;13.18;;;4.43;;
78873;SDS011;68250;43.514;1.494;2023-03-23T16:44:10;9.80;;;4.25;;
78873;SDS011;68250;43.514;1.494;2023-03-23T16:46:36;10.68;;;3.92;;
78873;SDS011;68250;43.514;1.494;2023-03-23T16:49:01;13.25;;;4.20;;
78873;SDS011;68250;43.514;1.494;2023-03-23T16:51:27;10.63;;;4.30;;
78873;SDS011;68250;43.514;1.494;2023-03-23T16:53:53;10.38;;;4.40;;
78873;SDS011;68250;43.514;1.494;2023-03-23T16:56:18;8.47;;;4.13;;